createdAt,value
2022-12-11T00:02:08.397Z,6.65
2022-12-11T00:04:35.791Z,7.60
2022-12-11T00:07:02.635Z,7.03
2022-12-11T00:09:29.863Z,7.25
2022-12-11T00:11:56.754Z,8.50
2022-12-11T00:14:23.746Z,7.05
2022-12-11T00:16:50.613Z,7.60
2022-12-11T00:19:17.568Z,6.75
2022-12-11T00:21:44.763Z,8.70
2022-12-11T00:24:11.710Z,8.75
2022-12-11T00:26:39.338Z,8.52
2022-12-11T00:29:08.283Z,8.55
2022-12-11T00:31:35.494Z,10.30
2022-12-11T00:34:02.812Z,9.10
2022-12-11T00:36:29.700Z,8.10
2022-12-11T00:38:56.653Z,9.98
2022-12-11T00:41:23.648Z,10.43
2022-12-11T00:43:51.321Z,10.30
2022-12-11T00:46:18.293Z,10.45
2022-12-11T00:48:46.282Z,11.18
2022-12-11T00:51:13.291Z,11.70
2022-12-11T00:53:40.206Z,12.35
2022-12-11T00:56:16.124Z,11.93
2022-12-11T00:58:43.043Z,13.25
2022-12-11T01:01:12.394Z,12.15
2022-12-11T01:03:39.521Z,13.15
2022-12-11T01:06:07.082Z,11.88
2022-12-11T01:08:38.512Z,12.43
2022-12-11T01:11:08.617Z,11.57
2022-12-11T01:13:35.515Z,11.75
2022-12-11T01:16:08.055Z,11.50
2022-12-11T01:18:35.267Z,11.45
2022-12-11T01:21:10.451Z,12.32
2022-12-11T01:23:37.778Z,13.55
2022-12-11T01:26:09.727Z,11.60
2022-12-11T01:28:37.415Z,14.38
2022-12-11T01:31:12.046Z,11.90
2022-12-11T01:33:39.680Z,11.80
2022-12-11T01:36:12.386Z,12.38
2022-12-11T01:38:39.220Z,11.07
2022-12-11T01:41:07.936Z,9.90
2022-12-11T01:43:35.346Z,10.38
2022-12-11T01:46:02.259Z,11.57
2022-12-11T01:48:31.558Z,12.15
2022-12-11T01:51:02.421Z,11.38
2022-12-11T01:53:35.037Z,10.15
2022-12-11T01:56:03.022Z,11.07
2022-12-11T01:58:33.965Z,11.77
2022-12-11T02:01:03.154Z,12.00
2022-12-11T02:03:30.445Z,13.82
2022-12-11T02:06:01.343Z,13.65
2022-12-11T02:08:29.180Z,14.77
2022-12-11T02:11:04.681Z,12.25
2022-12-11T02:13:44.869Z,15.07
2022-12-11T02:16:19.983Z,16.42
2022-12-11T02:19:01.517Z,14.77
2022-12-11T02:21:41.240Z,14.93
2022-12-11T02:24:47.132Z,16.15
2022-12-11T02:27:38.808Z,16.00
2022-12-11T02:30:09.373Z,16.45
2022-12-11T02:32:41.647Z,15.77
2022-12-11T02:35:20.516Z,16.73
2022-12-11T02:37:51.948Z,15.40
2022-12-11T02:40:25.140Z,14.30
2022-12-11T02:42:54.229Z,14.50
2022-12-11T02:45:23.582Z,15.02
2022-12-11T02:47:51.975Z,14.60
2022-12-11T02:50:21.996Z,13.98
2022-12-11T02:52:51.892Z,14.68
2022-12-11T02:55:19.927Z,13.32
2022-12-11T02:58:13.030Z,12.30
2022-12-11T03:00:40.217Z,11.30
2022-12-11T03:03:07.258Z,13.93
2022-12-11T03:05:34.184Z,12.88
2022-12-11T03:08:02.203Z,11.68
2022-12-11T03:10:29.162Z,12.73
2022-12-11T03:27:24.912Z,13.35
2022-12-11T03:30:02.371Z,12.88
2022-12-11T03:32:36.315Z,13.35
2022-12-11T03:35:12.409Z,12.70
2022-12-11T03:37:42.486Z,12.60
2022-12-11T03:40:16.487Z,11.65
2022-12-11T03:42:46.870Z,11.65
2022-12-11T03:45:16.186Z,10.88
2022-12-11T03:47:45.333Z,11.57
2022-12-11T03:50:14.537Z,10.27
2022-12-11T03:52:45.997Z,12.57
2022-12-11T03:55:15.278Z,11.13
2022-12-11T03:57:42.263Z,10.68
2022-12-11T04:00:15.669Z,10.55
2022-12-11T04:02:43.222Z,10.18
2022-12-11T04:05:11.948Z,11.32
2022-12-11T04:07:39.108Z,10.93
2022-12-11T04:10:07.025Z,10.95
2022-12-11T04:12:33.901Z,10.88
2022-12-11T04:15:03.499Z,10.50
2022-12-11T04:17:54.137Z,9.13
2022-12-11T04:20:40.095Z,10.25
2022-12-11T04:23:52.097Z,9.68
2022-12-11T04:26:20.681Z,10.27
2022-12-11T04:28:48.435Z,9.90
2022-12-11T04:31:18.198Z,9.23
2022-12-11T04:33:45.200Z,9.52
2022-12-11T04:36:13.063Z,9.82
2022-12-11T04:38:40.349Z,10.15
2022-12-11T04:41:12.897Z,9.95
2022-12-11T04:43:40.204Z,9.02
2022-12-11T04:46:17.228Z,10.55
2022-12-11T04:48:44.937Z,9.75
2022-12-11T04:51:12.245Z,11.20
2022-12-11T04:53:39.439Z,8.70
2022-12-11T04:56:08.456Z,9.20
2022-12-11T04:58:38.195Z,9.32
2022-12-11T05:01:13.619Z,8.90
2022-12-11T05:03:41.327Z,10.73
2022-12-11T05:06:09.410Z,10.02
2022-12-11T05:08:38.436Z,9.18
2022-12-11T05:11:07.458Z,8.82
2022-12-11T05:13:34.861Z,9.95
2022-12-11T05:16:05.070Z,10.45
2022-12-11T05:18:32.027Z,8.70
2022-12-11T05:21:04.978Z,10.18
2022-12-11T05:23:32.065Z,10.00
2022-12-11T05:26:02.312Z,8.77
2022-12-11T05:28:32.417Z,9.18
2022-12-11T05:31:05.340Z,10.45
2022-12-11T05:33:32.458Z,9.25
2022-12-11T05:35:59.325Z,9.32
2022-12-11T05:38:26.714Z,8.30
2022-12-11T05:40:57.951Z,7.40
2022-12-11T05:43:25.203Z,9.15
2022-12-11T05:45:52.132Z,8.60
2022-12-11T05:48:18.938Z,9.10
2022-12-11T05:50:55.934Z,7.75
2022-12-11T05:53:22.782Z,8.23
2022-12-11T05:55:49.551Z,9.07
2022-12-11T05:58:16.450Z,7.03
2022-12-11T06:00:43.960Z,7.70
2022-12-11T06:03:10.905Z,7.07
2022-12-11T06:05:42.169Z,9.43
2022-12-11T06:08:09.262Z,6.20
2022-12-11T06:10:36.250Z,7.90
2022-12-11T06:13:03.452Z,7.97
2022-12-11T06:15:30.318Z,8.13
2022-12-11T06:17:57.214Z,9.95
2022-12-11T06:20:24.073Z,7.43
2022-12-11T06:22:50.999Z,7.95
2022-12-11T06:25:17.949Z,8.10
2022-12-11T06:27:44.802Z,7.40
2022-12-11T06:30:12.349Z,7.43
2022-12-11T06:32:39.353Z,7.00
2022-12-11T06:35:06.557Z,7.70
2022-12-11T06:37:35.686Z,8.23
2022-12-11T06:40:04.082Z,7.07
2022-12-11T06:42:31.611Z,7.85
2022-12-11T06:44:59.904Z,7.72
2022-12-11T06:47:27.473Z,9.18
2022-12-11T06:49:54.477Z,7.60
2022-12-11T06:52:25.687Z,6.78
2022-12-11T06:54:52.471Z,7.47
2022-12-11T06:57:19.538Z,6.25
2022-12-11T06:59:46.552Z,6.95
2022-12-11T07:02:15.104Z,7.65
2022-12-11T07:04:42.393Z,7.82
2022-12-11T07:07:10.649Z,5.85
2022-12-11T07:09:39.913Z,7.00
2022-12-11T07:12:07.632Z,5.70
2022-12-11T07:14:34.803Z,6.65
2022-12-11T07:17:01.968Z,7.50
2022-12-11T07:19:28.997Z,6.07
2022-12-11T07:21:55.775Z,7.53
2022-12-11T07:24:22.842Z,7.15
2022-12-11T07:26:49.786Z,6.22
2022-12-11T07:29:16.648Z,6.60
2022-12-11T07:31:43.464Z,6.65
2022-12-11T07:34:12.896Z,6.80
2022-12-11T07:36:39.709Z,6.65
2022-12-11T07:39:07.613Z,6.00
2022-12-11T07:41:34.655Z,7.50
2022-12-11T07:44:01.868Z,5.07
2022-12-11T07:46:30.875Z,6.47
2022-12-11T07:48:58.091Z,5.03
2022-12-11T07:51:28.138Z,5.80
2022-12-11T07:54:00.854Z,6.25
2022-12-11T07:56:29.319Z,6.80
2022-12-11T07:58:56.858Z,5.38
2022-12-11T08:01:27.757Z,4.65
2022-12-11T08:03:55.404Z,5.35
2022-12-11T08:06:28.343Z,5.32
2022-12-11T08:08:56.077Z,5.35
2022-12-11T08:11:23.661Z,5.07
2022-12-11T08:13:50.853Z,5.07
2022-12-11T08:16:19.733Z,4.72
2022-12-11T08:18:47.776Z,5.88
2022-12-11T08:21:17.834Z,5.00
2022-12-11T08:23:44.851Z,5.18
2022-12-11T08:26:21.675Z,4.82
2022-12-11T08:28:48.629Z,4.68
2022-12-11T08:31:17.725Z,5.20
2022-12-11T08:33:45.252Z,5.03
2022-12-11T08:36:14.881Z,4.40
2022-12-11T08:38:42.412Z,4.90
2022-12-11T08:41:10.151Z,3.80
2022-12-11T08:43:37.028Z,3.60
2022-12-11T08:46:03.968Z,3.85
2022-12-11T08:48:30.936Z,4.20
2022-12-11T08:51:08.905Z,4.50
2022-12-11T08:53:35.844Z,3.90
2022-12-11T08:56:09.606Z,3.78
2022-12-11T08:58:36.587Z,3.35
2022-12-11T09:01:15.003Z,2.95
2022-12-11T09:03:42.291Z,2.95
2022-12-11T09:06:15.335Z,2.60
2022-12-11T09:08:50.357Z,3.47
2022-12-11T09:11:22.277Z,3.22
2022-12-11T09:13:49.296Z,3.05
2022-12-11T09:16:18.734Z,2.92
2022-12-11T09:18:48.399Z,3.38
2022-12-11T09:21:18.039Z,3.53
2022-12-11T09:23:45.054Z,3.50
2022-12-11T09:26:16.967Z,3.03
2022-12-11T09:28:46.843Z,3.28
2022-12-11T09:31:16.114Z,3.47
2022-12-11T09:33:43.735Z,3.67
2022-12-11T09:36:11.776Z,2.92
2022-12-11T09:38:39.347Z,3.63
2022-12-11T09:41:41.312Z,3.15
2022-12-11T09:44:32.577Z,2.83
2022-12-11T09:47:00.129Z,3.20
2022-12-11T09:49:49.260Z,2.63
2022-12-11T09:52:23.109Z,3.28
2022-12-11T09:55:02.402Z,3.08
2022-12-11T09:57:34.027Z,3.63
2022-12-11T10:00:26.803Z,3.30
2022-12-11T10:03:22.818Z,4.55
2022-12-11T10:06:04.936Z,3.20
2022-12-11T10:08:47.860Z,2.85
2022-12-11T10:11:33.226Z,3.35
2022-12-11T10:14:13.758Z,3.42
2022-12-11T10:16:45.375Z,3.53
2022-12-11T10:19:35.916Z,3.10
2022-12-11T10:22:03.685Z,2.80
2022-12-11T10:25:14.754Z,2.58
2022-12-11T10:27:41.826Z,2.97
2022-12-11T10:30:15.111Z,3.38
2022-12-11T10:33:06.712Z,3.38
2022-12-11T10:35:42.104Z,3.25
2022-12-11T10:38:27.557Z,3.40
2022-12-11T10:41:24.772Z,3.42
2022-12-11T10:43:53.608Z,3.75
2022-12-11T10:46:26.931Z,4.18
2022-12-11T10:48:56.832Z,4.20
2022-12-11T10:51:32.983Z,5.38
2022-12-11T10:54:17.809Z,5.95
2022-12-11T10:56:48.571Z,5.43
2022-12-11T10:59:39.346Z,7.20
2022-12-11T11:02:16.193Z,7.32
2022-12-11T11:04:44.960Z,5.93
2022-12-11T11:07:14.667Z,5.38
2022-12-11T11:09:41.737Z,5.55
2022-12-11T11:12:20.365Z,7.05
2022-12-11T11:14:47.455Z,6.68
2022-12-11T11:17:17.867Z,5.65
2022-12-11T11:19:48.345Z,7.15
2022-12-11T11:22:18.382Z,7.88
2022-12-11T11:24:52.711Z,7.38
2022-12-11T11:27:33.131Z,8.57
2022-12-11T11:30:03.032Z,7.22
2022-12-11T11:32:34.869Z,7.60
2022-12-11T11:35:11.626Z,9.52
2022-12-11T11:37:44.590Z,8.55
2022-12-11T11:40:34.294Z,9.73
2022-12-11T11:43:29.606Z,12.05
2022-12-11T11:46:15.673Z,9.07
2022-12-11T11:48:48.352Z,9.45
2022-12-11T11:51:18.092Z,10.63
2022-12-11T11:53:49.815Z,10.55
2022-12-11T11:56:38.619Z,10.13
2022-12-11T11:59:05.418Z,9.57
2022-12-11T12:01:32.685Z,10.35
2022-12-11T12:04:02.826Z,7.65
2022-12-11T12:06:32.725Z,9.55
2022-12-11T12:09:16.577Z,8.02
2022-12-11T12:11:52.211Z,7.00
2022-12-11T12:17:38.577Z,7.28
2022-12-11T12:20:17.875Z,8.23
2022-12-11T12:23:09.350Z,7.50
2022-12-11T12:25:42.404Z,8.40
2022-12-11T12:28:41.422Z,7.53
2022-12-11T12:31:37.319Z,8.10
2022-12-11T12:34:10.330Z,5.63
2022-12-11T12:36:39.911Z,6.07
2022-12-11T12:39:29.948Z,6.25
2022-12-11T12:42:19.921Z,5.90
2022-12-11T12:45:02.328Z,5.63
2022-12-11T12:47:32.574Z,6.18
2022-12-11T12:50:01.402Z,7.10
2022-12-11T12:52:33.287Z,6.28
2022-12-11T12:55:14.727Z,6.55
2022-12-11T12:57:47.106Z,6.53
2022-12-11T13:00:25.553Z,7.05
2022-12-11T13:02:54.131Z,6.40
2022-12-11T13:05:30.619Z,5.90
2022-12-11T13:08:01.153Z,6.47
2022-12-11T13:10:30.858Z,6.63
2022-12-11T13:12:58.722Z,5.38
2022-12-11T13:15:33.789Z,7.57
2022-12-11T13:18:04.045Z,6.82
2022-12-11T13:20:34.391Z,6.47
2022-12-11T13:23:07.306Z,6.55
2022-12-11T13:25:46.479Z,7.85
2022-12-11T13:28:25.068Z,6.55
2022-12-11T13:31:16.528Z,6.47
2022-12-11T13:33:48.100Z,7.72
2022-12-11T13:36:24.533Z,7.47
2022-12-11T13:39:08.586Z,5.90
2022-12-11T13:41:37.724Z,7.43
2022-12-11T13:44:07.214Z,7.47
2022-12-11T13:46:37.368Z,6.63
2022-12-11T13:49:07.067Z,5.90
2022-12-11T13:51:36.312Z,6.97
2022-12-11T13:54:07.619Z,6.75
2022-12-11T13:56:34.546Z,6.63
2022-12-11T13:59:01.768Z,7.60
2022-12-11T14:01:34.162Z,6.82
2022-12-11T14:04:03.109Z,7.05
2022-12-11T14:06:31.323Z,7.75
2022-12-11T14:09:01.525Z,7.50
2022-12-11T14:11:37.405Z,8.27
2022-12-11T14:14:16.282Z,8.80
2022-12-11T14:16:43.257Z,8.00
2022-12-11T14:19:11.088Z,8.70
2022-12-11T14:21:38.002Z,8.40
2022-12-11T14:24:06.687Z,8.25
2022-12-11T14:26:35.866Z,10.00
2022-12-11T14:29:03.065Z,9.90
2022-12-11T14:31:43.914Z,11.32
2022-12-11T14:34:19.190Z,9.55
2022-12-11T14:36:48.201Z,10.05
2022-12-11T14:39:24.310Z,8.30
2022-12-11T14:42:01.404Z,8.93
2022-12-11T14:44:32.506Z,9.50
2022-12-11T14:47:04.262Z,7.20
2022-12-11T14:49:58.820Z,9.10
2022-12-11T14:52:33.830Z,7.43
2022-12-11T14:55:07.878Z,9.52
2022-12-11T14:57:36.132Z,6.97
2022-12-11T15:00:05.533Z,8.40
2022-12-11T15:02:35.054Z,9.20
2022-12-11T15:05:22.410Z,9.90
2022-12-11T15:08:00.080Z,7.03
2022-12-11T15:10:31.400Z,9.07
2022-12-11T15:29:04.160Z,6.57
2022-12-11T15:31:35.302Z,7.72
2022-12-11T15:34:02.799Z,9.40
2022-12-11T15:36:35.158Z,7.28
2022-12-11T15:39:03.644Z,6.15
2022-12-11T15:41:33.464Z,6.75
2022-12-11T15:44:03.191Z,5.43
2022-12-11T15:46:35.254Z,6.63
2022-12-11T15:49:02.108Z,6.30
2022-12-11T15:51:29.197Z,5.68
2022-12-11T15:53:56.171Z,5.68
2022-12-11T15:56:23.017Z,6.28
2022-12-11T15:58:50.143Z,4.95
2022-12-11T16:01:17.748Z,6.70
2022-12-11T16:03:45.861Z,6.63
2022-12-11T16:06:13.959Z,6.57
2022-12-11T16:08:41.081Z,4.75
2022-12-11T16:11:08.065Z,5.57
2022-12-11T16:13:35.032Z,6.13
2022-12-11T16:16:01.945Z,5.80
2022-12-11T16:18:28.748Z,6.43
2022-12-11T16:20:55.710Z,5.93
2022-12-11T16:23:22.576Z,6.18
2022-12-11T16:25:51.301Z,6.28
2022-12-11T16:28:21.156Z,6.43
2022-12-11T16:30:48.473Z,5.65
2022-12-11T16:33:15.481Z,4.40
2022-12-11T16:35:43.064Z,6.30
2022-12-11T16:38:11.314Z,4.70
2022-12-11T16:40:38.627Z,5.57
2022-12-11T16:43:05.666Z,4.13
2022-12-11T16:45:33.347Z,3.30
2022-12-11T16:48:04.112Z,4.47
2022-12-11T16:50:32.349Z,3.83
2022-12-11T16:52:59.449Z,4.10
2022-12-11T16:55:26.293Z,5.00
2022-12-11T16:57:53.204Z,3.90
2022-12-11T17:00:20.619Z,3.90
2022-12-11T17:02:47.730Z,4.78
2022-12-11T17:05:15.071Z,3.72
2022-12-11T17:07:42.083Z,3.70
2022-12-11T17:10:09.065Z,3.90
2022-12-11T17:12:36.152Z,3.88
2022-12-11T17:15:03.730Z,3.22
2022-12-11T17:17:31.070Z,4.70
2022-12-11T17:19:58.004Z,3.85
2022-12-11T17:22:25.408Z,2.47
2022-12-11T17:24:52.297Z,4.20
2022-12-11T17:27:19.236Z,2.95
2022-12-11T17:29:47.415Z,3.05
2022-12-11T17:32:14.261Z,2.40
2022-12-11T17:34:41.171Z,2.97
2022-12-11T17:37:08.034Z,2.83
2022-12-11T17:39:35.054Z,3.05
2022-12-11T17:42:02.000Z,2.78
2022-12-11T17:44:30.934Z,2.60
2022-12-11T17:46:58.811Z,2.97
2022-12-11T17:49:26.301Z,3.65
2022-12-11T17:51:55.391Z,2.67
2022-12-11T17:54:24.121Z,2.78
2022-12-11T17:56:51.129Z,3.20
2022-12-11T17:59:18.213Z,3.42
2022-12-11T18:04:12.639Z,3.63
2022-12-11T18:06:40.038Z,2.80
2022-12-11T18:09:07.421Z,3.92
2022-12-11T18:11:34.794Z,3.70
2022-12-11T18:14:02.052Z,3.17
2022-12-11T18:16:35.286Z,4.15
2022-12-11T18:19:02.444Z,6.97
2022-12-11T18:21:33.195Z,4.10
2022-12-11T18:24:00.660Z,3.90
2022-12-11T18:26:28.231Z,4.97
2022-12-11T18:28:55.377Z,5.40
2022-12-11T18:31:23.296Z,5.93
2022-12-11T18:33:50.873Z,3.95
2022-12-11T18:36:19.399Z,5.20
2022-12-11T18:38:47.985Z,4.20
2022-12-11T18:41:17.012Z,3.67
2022-12-11T18:43:43.808Z,3.92
2022-12-11T18:46:14.446Z,4.53
2022-12-11T18:48:42.375Z,3.78
2022-12-11T18:51:13.071Z,4.65
2022-12-11T18:53:40.895Z,4.47
2022-12-11T18:56:11.264Z,4.88
2022-12-11T18:58:38.429Z,4.65
2022-12-11T19:01:15.547Z,4.25
2022-12-11T19:03:44.170Z,4.43
2022-12-11T19:06:14.819Z,4.10
2022-12-11T19:08:42.374Z,4.97
2022-12-11T19:11:09.279Z,4.40
2022-12-11T19:13:36.253Z,4.47
2022-12-11T19:16:03.433Z,4.13
2022-12-11T19:18:30.483Z,4.60
2022-12-11T19:21:08.069Z,4.70
2022-12-11T19:23:36.296Z,5.35
2022-12-11T19:26:03.844Z,4.10
2022-12-11T19:28:31.499Z,4.85
2022-12-11T19:30:58.495Z,5.82
2022-12-11T19:33:25.421Z,5.07
2022-12-11T19:36:01.848Z,5.65
2022-12-11T19:38:28.845Z,6.18
2022-12-11T19:40:56.093Z,6.88
2022-12-11T19:43:23.013Z,8.27
2022-12-11T19:45:49.829Z,6.45
2022-12-11T19:48:17.504Z,4.70
2022-12-11T19:50:44.450Z,4.05
2022-12-11T19:53:11.339Z,4.18
2022-12-11T19:55:38.283Z,5.25
2022-12-11T19:58:05.137Z,5.40
2022-12-11T20:00:33.050Z,0.55
2022-12-11T20:02:59.937Z,0.60
2022-12-11T20:05:26.818Z,0.50
2022-12-11T20:07:53.846Z,1.40
2022-12-11T20:10:20.716Z,1.00
2022-12-11T20:12:47.547Z,1.02
2022-12-11T20:15:14.707Z,1.27
2022-12-11T20:17:44.636Z,0.35
2022-12-11T20:20:12.001Z,0.98
2022-12-11T20:22:39.061Z,0.52
2022-12-11T20:25:06.378Z,0.20
2022-12-11T20:27:33.317Z,0.47
2022-12-11T20:30:00.334Z,0.47
2022-12-11T20:32:27.331Z,1.35
2022-12-11T20:34:58.029Z,0.60
2022-12-11T20:37:26.160Z,0.10
2022-12-11T20:39:53.013Z,0.52
2022-12-11T20:42:19.942Z,0.90
2022-12-11T20:44:49.211Z,0.82
2022-12-11T20:47:19.815Z,0.30
2022-12-11T20:49:48.151Z,0.30
2022-12-11T20:52:15.347Z,0.40
2022-12-11T20:54:42.366Z,0.30
2022-12-11T20:57:10.117Z,0.68
2022-12-11T20:59:37.619Z,0.80
2022-12-11T21:02:06.129Z,1.23
2022-12-11T21:04:33.256Z,0.10
2022-12-11T21:07:00.907Z,0.65
2022-12-11T21:09:28.073Z,0.65
2022-12-11T21:11:57.245Z,0.17
2022-12-11T21:14:24.149Z,0.63
2022-12-11T21:16:51.122Z,0.60
2022-12-11T21:19:22.400Z,0.10
2022-12-11T21:21:50.037Z,0.10
2022-12-11T21:24:20.417Z,0.20
2022-12-11T21:26:48.519Z,0.57
2022-12-11T21:29:16.238Z,0.65
2022-12-11T21:31:43.318Z,0.17
2022-12-11T21:34:10.719Z,0.45
2022-12-11T21:36:37.632Z,0.60
2022-12-11T21:39:05.192Z,0.17
2022-12-11T21:41:32.324Z,2.03
2022-12-11T21:46:48.833Z,0.68
2022-12-11T21:49:16.285Z,0.00
2022-12-11T21:51:47.457Z,0.52
2022-12-11T21:54:18.383Z,0.40
2022-12-11T21:56:46.069Z,0.20
2022-12-11T21:59:13.291Z,0.30
2022-12-11T22:01:45.959Z,0.40
2022-12-11T22:04:14.306Z,1.58
2022-12-11T22:06:47.058Z,0.15
2022-12-11T22:09:15.823Z,0.17
2022-12-11T22:11:43.832Z,0.75
2022-12-11T22:14:13.475Z,0.17
2022-12-11T22:16:40.532Z,0.82
2022-12-11T22:19:07.597Z,0.47
2022-12-11T22:21:34.865Z,0.55
2022-12-11T22:24:02.095Z,0.17
2022-12-11T22:26:29.346Z,0.77
2022-12-11T22:28:57.055Z,0.70
2022-12-11T22:31:26.008Z,0.32
2022-12-11T22:33:54.986Z,0.82
2022-12-11T22:36:26.439Z,0.13
2022-12-11T22:38:53.909Z,0.82
2022-12-11T22:41:23.550Z,0.22
2022-12-11T22:43:50.594Z,0.95
2022-12-11T22:46:19.862Z,0.10
2022-12-11T22:48:46.771Z,0.98
2022-12-11T22:51:14.085Z,0.32
2022-12-11T22:53:40.915Z,0.80
2022-12-11T22:56:10.205Z,0.10
2022-12-11T22:58:37.201Z,0.82
2022-12-11T23:01:08.228Z,1.23
2022-12-11T23:03:35.102Z,0.63
2022-12-11T23:06:06.679Z,0.65
2022-12-11T23:08:33.608Z,0.25
2022-12-11T23:11:00.553Z,0.38
2022-12-11T23:13:27.609Z,0.35
2022-12-11T23:15:54.492Z,0.10
2022-12-11T23:18:21.481Z,0.20
2022-12-11T23:20:49.358Z,0.30
2022-12-11T23:23:16.242Z,0.20
2022-12-11T23:25:43.076Z,0.45
2022-12-11T23:28:09.895Z,0.32
2022-12-11T23:30:37.714Z,0.10
2022-12-11T23:33:06.695Z,0.00
2022-12-11T23:35:33.720Z,0.00
2022-12-11T23:38:00.844Z,0.20
2022-12-11T23:40:27.777Z,0.30
2022-12-11T23:42:54.598Z,0.20
2022-12-11T23:45:21.524Z,0.00
2022-12-11T23:47:48.509Z,0.20
2022-12-11T23:50:15.997Z,0.00
2022-12-11T23:52:42.947Z,0.10
2022-12-11T23:55:10.820Z,0.00
2022-12-11T23:57:38.031Z,0.63
